sensor_id;sensor_type;location;lat;lon;timestamp;P1;durP1;ratioP1;P2;durP2;ratioP2
71435;SDS011;59251;51.326;12.370;2023-09-12T00:01:34;18.83;;;8.73;;
71435;SDS011;59251;51.326;12.370;2023-09-12T00:04:01;18.42;;;9.45;;
71435;SDS011;59251;51.326;12.370;2023-09-12T00:06:27;16.95;;;9.00;;
71435;SDS011;59251;51.326;12.370;2023-09-12T00:08:54;19.25;;;9.70;;
71435;SDS011;59251;51.326;12.370;2023-09-12T00:11:21;17.30;;;8.68;;
71435;SDS011;59251;51.326;12.370;2023-09-12T00:13:50;17.20;;;7.93;;
71435;SDS011;59251;51.326;12.370;2023-09-12T00:16:18;13.82;;;7.88;;
71435;SDS011;59251;51.326;12.370;2023-09-12T00:18:46;18.08;;;8.55;;
71435;SDS011;59251;51.326;12.370;2023-09-12T00:21:12;17.33;;;9.13;;
71435;SDS011;59251;51.326;12.370;2023-09-12T00:23:39;16.33;;;8.25;;
71435;SDS011;59251;51.326;12.370;2023-09-12T00:26:06;13.67;;;7.87;;
71435;SDS011;59251;51.326;12.370;2023-09-12T00:28:32;15.60;;;8.10;;
71435;SDS011;59251;51.326;12.370;2023-09-12T00:30:59;15.25;;;8.60;;
71435;SDS011;59251;51.326;12.370;2023-09-12T00:33:26;17.00;;;8.73;;
71435;SDS011;59251;51.326;12.370;2023-09-12T00:35:54;16.27;;;9.27;;
71435;SDS011;59251;51.326;12.370;2023-09-12T00:38:21;16.73;;;8.83;;
71435;SDS011;59251;51.326;12.370;2023-09-12T00:40:48;14.90;;;8.18;;
71435;SDS011;59251;51.326;12.370;2023-09-12T00:43:15;15.93;;;8.77;;
71435;SDS011;59251;51.326;12.370;2023-09-12T00:45:42;14.27;;;8.13;;
71435;SDS011;59251;51.326;12.370;2023-09-12T00:48:08;16.58;;;8.73;;
71435;SDS011;59251;51.326;12.370;2023-09-12T00:50:35;16.17;;;9.10;;
71435;SDS011;59251;51.326;12.370;2023-09-12T00:53:05;16.65;;;9.30;;
71435;SDS011;59251;51.326;12.370;2023-09-12T00:55:32;13.98;;;8.32;;
71435;SDS011;59251;51.326;12.370;2023-09-12T00:58:01;15.38;;;8.40;;
71435;SDS011;59251;51.326;12.370;2023-09-12T01:00:28;16.73;;;8.38;;
71435;SDS011;59251;51.326;12.370;2023-09-12T01:02:56;16.07;;;8.60;;
71435;SDS011;59251;51.326;12.370;2023-09-12T01:05:24;16.70;;;7.93;;
71435;SDS011;59251;51.326;12.370;2023-09-12T01:07:51;14.82;;;7.97;;
71435;SDS011;59251;51.326;12.370;2023-09-12T01:10:19;15.95;;;7.47;;
71435;SDS011;59251;51.326;12.370;2023-09-12T01:12:46;16.30;;;7.53;;
71435;SDS011;59251;51.326;12.370;2023-09-12T01:15:13;17.77;;;7.87;;
71435;SDS011;59251;51.326;12.370;2023-09-12T01:17:40;16.25;;;7.80;;
71435;SDS011;59251;51.326;12.370;2023-09-12T01:20:08;13.98;;;7.82;;
71435;SDS011;59251;51.326;12.370;2023-09-12T01:22:52;15.70;;;7.75;;
71435;SDS011;59251;51.326;12.370;2023-09-12T01:25:29;14.95;;;8.20;;
71435;SDS011;59251;51.326;12.370;2023-09-12T01:28:09;17.13;;;7.03;;
71435;SDS011;59251;51.326;12.370;2023-09-12T01:30:36;14.10;;;7.35;;
71435;SDS011;59251;51.326;12.370;2023-09-12T01:33:05;17.70;;;7.43;;
71435;SDS011;59251;51.326;12.370;2023-09-12T01:35:32;17.73;;;8.80;;
71435;SDS011;59251;51.326;12.370;2023-09-12T01:37:59;15.95;;;8.25;;
71435;SDS011;59251;51.326;12.370;2023-09-12T01:40:27;14.20;;;7.57;;
71435;SDS011;59251;51.326;12.370;2023-09-12T01:42:59;13.20;;;6.80;;
71435;SDS011;59251;51.326;12.370;2023-09-12T01:45:28;16.38;;;7.68;;
71435;SDS011;59251;51.326;12.370;2023-09-12T01:47:55;13.95;;;7.10;;
71435;SDS011;59251;51.326;12.370;2023-09-12T01:50:23;13.02;;;7.55;;
71435;SDS011;59251;51.326;12.370;2023-09-12T01:52:53;14.60;;;7.43;;
71435;SDS011;59251;51.326;12.370;2023-09-12T01:55:19;16.95;;;7.68;;
71435;SDS011;59251;51.326;12.370;2023-09-12T01:57:47;12.60;;;7.22;;
71435;SDS011;59251;51.326;12.370;2023-09-12T02:00:14;13.90;;;7.55;;
71435;SDS011;59251;51.326;12.370;2023-09-12T02:02:42;14.45;;;7.28;;
71435;SDS011;59251;51.326;12.370;2023-09-12T02:05:10;13.30;;;6.73;;
71435;SDS011;59251;51.326;12.370;2023-09-12T02:07:40;16.92;;;7.30;;
71435;SDS011;59251;51.326;12.370;2023-09-12T02:10:08;16.50;;;7.40;;
71435;SDS011;59251;51.326;12.370;2023-09-12T02:12:35;16.27;;;7.75;;
71435;SDS011;59251;51.326;12.370;2023-09-12T02:15:03;12.90;;;6.90;;
71435;SDS011;59251;51.326;12.370;2023-09-12T02:17:30;15.27;;;8.53;;
71435;SDS011;59251;51.326;12.370;2023-09-12T02:19:58;13.75;;;6.93;;
71435;SDS011;59251;51.326;12.370;2023-09-12T02:22:25;16.50;;;7.32;;
71435;SDS011;59251;51.326;12.370;2023-09-12T02:24:52;13.00;;;6.70;;
71435;SDS011;59251;51.326;12.370;2023-09-12T02:27:18;14.00;;;7.38;;
71435;SDS011;59251;51.326;12.370;2023-09-12T02:29:45;18.40;;;7.60;;
71435;SDS011;59251;51.326;12.370;2023-09-12T02:32:12;16.95;;;7.00;;
71435;SDS011;59251;51.326;12.370;2023-09-12T02:34:39;13.68;;;7.25;;
71435;SDS011;59251;51.326;12.370;2023-09-12T02:37:07;14.73;;;6.70;;
71435;SDS011;59251;51.326;12.370;2023-09-12T02:39:34;18.70;;;7.43;;
71435;SDS011;59251;51.326;12.370;2023-09-12T02:42:00;14.80;;;7.27;;
71435;SDS011;59251;51.326;12.370;2023-09-12T02:44:27;18.17;;;7.25;;
71435;SDS011;59251;51.326;12.370;2023-09-12T02:46:54;23.00;;;7.65;;
71435;SDS011;59251;51.326;12.370;2023-09-12T02:49:21;15.88;;;8.23;;
71435;SDS011;59251;51.326;12.370;2023-09-12T02:51:47;14.13;;;7.93;;
71435;SDS011;59251;51.326;12.370;2023-09-12T02:54:15;17.23;;;8.63;;
71435;SDS011;59251;51.326;12.370;2023-09-12T02:56:42;14.32;;;7.25;;
71435;SDS011;59251;51.326;12.370;2023-09-12T02:59:09;14.63;;;8.52;;
71435;SDS011;59251;51.326;12.370;2023-09-12T03:01:36;17.58;;;8.55;;
71435;SDS011;59251;51.326;12.370;2023-09-12T03:04:03;16.30;;;8.82;;
71435;SDS011;59251;51.326;12.370;2023-09-12T03:06:29;17.87;;;8.43;;
71435;SDS011;59251;51.326;12.370;2023-09-12T03:08:57;15.70;;;8.00;;
71435;SDS011;59251;51.326;12.370;2023-09-12T03:11:26;14.93;;;8.63;;
71435;SDS011;59251;51.326;12.370;2023-09-12T03:13:53;16.08;;;8.70;;
71435;SDS011;59251;51.326;12.370;2023-09-12T03:16:20;16.80;;;8.73;;
71435;SDS011;59251;51.326;12.370;2023-09-12T03:18:49;17.80;;;8.53;;
71435;SDS011;59251;51.326;12.370;2023-09-12T03:21:16;18.60;;;8.85;;
71435;SDS011;59251;51.326;12.370;2023-09-12T03:23:42;16.20;;;9.68;;
71435;SDS011;59251;51.326;12.370;2023-09-12T03:26:09;14.93;;;8.35;;
71435;SDS011;59251;51.326;12.370;2023-09-12T03:28:39;17.13;;;8.57;;
71435;SDS011;59251;51.326;12.370;2023-09-12T03:31:07;18.20;;;8.90;;
71435;SDS011;59251;51.326;12.370;2023-09-12T03:33:36;15.00;;;8.73;;
71435;SDS011;59251;51.326;12.370;2023-09-12T03:36:04;15.98;;;8.40;;
71435;SDS011;59251;51.326;12.370;2023-09-12T03:38:32;17.92;;;8.25;;
71435;SDS011;59251;51.326;12.370;2023-09-12T03:40:58;19.52;;;8.75;;
71435;SDS011;59251;51.326;12.370;2023-09-12T03:43:25;16.93;;;8.97;;
71435;SDS011;59251;51.326;12.370;2023-09-12T03:45:53;16.83;;;9.13;;
71435;SDS011;59251;51.326;12.370;2023-09-12T03:48:20;19.13;;;8.50;;
71435;SDS011;59251;51.326;12.370;2023-09-12T03:50:47;17.65;;;9.18;;
71435;SDS011;59251;51.326;12.370;2023-09-12T03:53:14;18.70;;;9.50;;
71435;SDS011;59251;51.326;12.370;2023-09-12T03:55:41;18.60;;;9.47;;
71435;SDS011;59251;51.326;12.370;2023-09-12T03:58:08;17.15;;;7.88;;
71435;SDS011;59251;51.326;12.370;2023-09-12T04:00:34;16.08;;;8.23;;
71435;SDS011;59251;51.326;12.370;2023-09-12T04:03:03;17.02;;;8.30;;
71435;SDS011;59251;51.326;12.370;2023-09-12T04:05:30;19.58;;;8.80;;
71435;SDS011;59251;51.326;12.370;2023-09-12T04:07:57;13.87;;;8.07;;
71435;SDS011;59251;51.326;12.370;2023-09-12T04:10:23;15.35;;;8.25;;
71435;SDS011;59251;51.326;12.370;2023-09-12T04:12:50;13.57;;;7.93;;
71435;SDS011;59251;51.326;12.370;2023-09-12T04:15:17;15.15;;;8.40;;
71435;SDS011;59251;51.326;12.370;2023-09-12T04:17:43;15.73;;;8.68;;
71435;SDS011;59251;51.326;12.370;2023-09-12T04:20:12;16.90;;;7.97;;
71435;SDS011;59251;51.326;12.370;2023-09-12T04:22:39;17.33;;;8.45;;
71435;SDS011;59251;51.326;12.370;2023-09-12T04:25:06;14.07;;;8.07;;
71435;SDS011;59251;51.326;12.370;2023-09-12T04:27:33;15.15;;;8.30;;
71435;SDS011;59251;51.326;12.370;2023-09-12T04:30:00;14.85;;;7.88;;
71435;SDS011;59251;51.326;12.370;2023-09-12T04:32:28;16.50;;;7.87;;
71435;SDS011;59251;51.326;12.370;2023-09-12T04:34:55;15.80;;;8.50;;
71435;SDS011;59251;51.326;12.370;2023-09-12T04:37:23;14.00;;;8.52;;
71435;SDS011;59251;51.326;12.370;2023-09-12T04:39:50;18.35;;;7.53;;
71435;SDS011;59251;51.326;12.370;2023-09-12T04:42:17;14.68;;;7.60;;
71435;SDS011;59251;51.326;12.370;2023-09-12T04:44:43;18.70;;;8.60;;
71435;SDS011;59251;51.326;12.370;2023-09-12T04:47:10;15.48;;;8.35;;
71435;SDS011;59251;51.326;12.370;2023-09-12T04:49:38;19.15;;;8.82;;
71435;SDS011;59251;51.326;12.370;2023-09-12T04:52:05;16.23;;;9.35;;
71435;SDS011;59251;51.326;12.370;2023-09-12T04:54:34;19.15;;;9.55;;
71435;SDS011;59251;51.326;12.370;2023-09-12T04:57:01;16.50;;;8.57;;
71435;SDS011;59251;51.326;12.370;2023-09-12T04:59:28;19.17;;;9.10;;
71435;SDS011;59251;51.326;12.370;2023-09-12T05:01:55;18.35;;;9.48;;
71435;SDS011;59251;51.326;12.370;2023-09-12T05:04:21;16.48;;;9.07;;
71435;SDS011;59251;51.326;12.370;2023-09-12T05:06:48;21.77;;;10.23;;
71435;SDS011;59251;51.326;12.370;2023-09-12T05:09:15;18.13;;;9.03;;
71435;SDS011;59251;51.326;12.370;2023-09-12T05:11:43;16.40;;;8.68;;
71435;SDS011;59251;51.326;12.370;2023-09-12T05:14:10;15.75;;;8.55;;
71435;SDS011;59251;51.326;12.370;2023-09-12T05:16:37;17.60;;;9.23;;
71435;SDS011;59251;51.326;12.370;2023-09-12T05:19:04;16.75;;;8.85;;
71435;SDS011;59251;51.326;12.370;2023-09-12T05:21:31;18.60;;;9.00;;
71435;SDS011;59251;51.326;12.370;2023-09-12T05:23:57;15.75;;;8.23;;
71435;SDS011;59251;51.326;12.370;2023-09-12T05:26:24;18.30;;;9.60;;
71435;SDS011;59251;51.326;12.370;2023-09-12T05:28:52;18.52;;;8.65;;
71435;SDS011;59251;51.326;12.370;2023-09-12T05:31:19;17.42;;;8.38;;
71435;SDS011;59251;51.326;12.370;2023-09-12T05:33:46;18.70;;;8.73;;
71435;SDS011;59251;51.326;12.370;2023-09-12T05:36:14;18.90;;;9.27;;
71435;SDS011;59251;51.326;12.370;2023-09-12T05:38:40;14.77;;;8.68;;
71435;SDS011;59251;51.326;12.370;2023-09-12T05:41:08;18.25;;;8.07;;
71435;SDS011;59251;51.326;12.370;2023-09-12T05:43:34;17.58;;;8.00;;
71435;SDS011;59251;51.326;12.370;2023-09-12T05:46:03;19.07;;;8.57;;
71435;SDS011;59251;51.326;12.370;2023-09-12T05:48:30;14.75;;;8.38;;
71435;SDS011;59251;51.326;12.370;2023-09-12T05:50:57;14.38;;;8.05;;
71435;SDS011;59251;51.326;12.370;2023-09-12T05:53:23;16.65;;;7.93;;
71435;SDS011;59251;51.326;12.370;2023-09-12T05:55:50;17.90;;;8.63;;
71435;SDS011;59251;51.326;12.370;2023-09-12T05:58:17;18.43;;;8.00;;
71435;SDS011;59251;51.326;12.370;2023-09-12T06:00:44;16.40;;;8.20;;
71435;SDS011;59251;51.326;12.370;2023-09-12T06:03:14;14.50;;;8.07;;
71435;SDS011;59251;51.326;12.370;2023-09-12T06:05:42;16.40;;;8.13;;
71435;SDS011;59251;51.326;12.370;2023-09-12T06:08:08;17.10;;;8.15;;
71435;SDS011;59251;51.326;12.370;2023-09-12T06:10:35;18.47;;;8.30;;
71435;SDS011;59251;51.326;12.370;2023-09-12T06:13:02;18.52;;;7.53;;
71435;SDS011;59251;51.326;12.370;2023-09-12T06:15:29;15.00;;;7.43;;
71435;SDS011;59251;51.326;12.370;2023-09-12T06:17:56;15.80;;;7.72;;
71435;SDS011;59251;51.326;12.370;2023-09-12T06:20:24;17.75;;;7.70;;
71435;SDS011;59251;51.326;12.370;2023-09-12T06:22:51;17.37;;;8.13;;
71435;SDS011;59251;51.326;12.370;2023-09-12T06:25:17;18.42;;;8.52;;
71435;SDS011;59251;51.326;12.370;2023-09-12T06:27:44;16.58;;;8.23;;
71435;SDS011;59251;51.326;12.370;2023-09-12T06:30:11;18.17;;;7.88;;
71435;SDS011;59251;51.326;12.370;2023-09-12T06:32:39;16.45;;;8.60;;
71435;SDS011;59251;51.326;12.370;2023-09-12T06:35:06;17.67;;;8.50;;
71435;SDS011;59251;51.326;12.370;2023-09-12T06:37:37;14.63;;;7.60;;
71435;SDS011;59251;51.326;12.370;2023-09-12T06:40:04;16.20;;;7.70;;
71435;SDS011;59251;51.326;12.370;2023-09-12T06:42:31;18.25;;;8.18;;
71435;SDS011;59251;51.326;12.370;2023-09-12T06:44:58;20.63;;;7.80;;
71435;SDS011;59251;51.326;12.370;2023-09-12T06:47:25;15.03;;;7.47;;
71435;SDS011;59251;51.326;12.370;2023-09-12T06:49:52;13.27;;;7.00;;
71435;SDS011;59251;51.326;12.370;2023-09-12T06:52:18;14.13;;;7.57;;
71435;SDS011;59251;51.326;12.370;2023-09-12T06:54:46;16.98;;;7.93;;
71435;SDS011;59251;51.326;12.370;2023-09-12T06:57:13;15.43;;;7.97;;
71435;SDS011;59251;51.326;12.370;2023-09-12T06:59:40;18.60;;;8.23;;
71435;SDS011;59251;51.326;12.370;2023-09-12T07:02:07;16.38;;;8.27;;
71435;SDS011;59251;51.326;12.370;2023-09-12T07:04:35;18.88;;;7.30;;
71435;SDS011;59251;51.326;12.370;2023-09-12T07:07:01;17.05;;;8.38;;
71435;SDS011;59251;51.326;12.370;2023-09-12T07:09:29;18.77;;;8.05;;
71435;SDS011;59251;51.326;12.370;2023-09-12T07:11:57;13.53;;;7.30;;
71435;SDS011;59251;51.326;12.370;2023-09-12T07:14:24;17.25;;;7.57;;
71435;SDS011;59251;51.326;12.370;2023-09-12T07:16:51;19.15;;;7.82;;
71435;SDS011;59251;51.326;12.370;2023-09-12T07:19:17;15.38;;;7.63;;
71435;SDS011;59251;51.326;12.370;2023-09-12T07:21:44;18.25;;;8.07;;
71435;SDS011;59251;51.326;12.370;2023-09-12T07:24:11;16.97;;;7.00;;
71435;SDS011;59251;51.326;12.370;2023-09-12T07:26:38;19.05;;;7.78;;
71435;SDS011;59251;51.326;12.370;2023-09-12T07:29:06;16.45;;;6.95;;
71435;SDS011;59251;51.326;12.370;2023-09-12T07:31:33;21.50;;;7.88;;
71435;SDS011;59251;51.326;12.370;2023-09-12T07:33:59;21.80;;;8.32;;
71435;SDS011;59251;51.326;12.370;2023-09-12T07:36:26;25.80;;;7.83;;
71435;SDS011;59251;51.326;12.370;2023-09-12T07:38:53;14.20;;;7.35;;
71435;SDS011;59251;51.326;12.370;2023-09-12T07:41:19;21.27;;;7.85;;
71435;SDS011;59251;51.326;12.370;2023-09-12T07:43:46;18.52;;;8.05;;
71435;SDS011;59251;51.326;12.370;2023-09-12T07:46:14;17.27;;;8.02;;
71435;SDS011;59251;51.326;12.370;2023-09-12T07:48:41;22.10;;;8.23;;
71435;SDS011;59251;51.326;12.370;2023-09-12T07:51:11;18.92;;;8.35;;
71435;SDS011;59251;51.326;12.370;2023-09-12T07:53:39;20.02;;;7.18;;
71435;SDS011;59251;51.326;12.370;2023-09-12T07:56:07;19.80;;;7.72;;
71435;SDS011;59251;51.326;12.370;2023-09-12T07:58:35;14.75;;;7.22;;
71435;SDS011;59251;51.326;12.370;2023-09-12T08:01:04;18.03;;;7.53;;
71435;SDS011;59251;51.326;12.370;2023-09-12T08:03:32;16.10;;;7.20;;
71435;SDS011;59251;51.326;12.370;2023-09-12T08:05:59;16.08;;;7.07;;
71435;SDS011;59251;51.326;12.370;2023-09-12T08:08:26;17.13;;;6.32;;
71435;SDS011;59251;51.326;12.370;2023-09-12T08:10:53;17.63;;;6.75;;
71435;SDS011;59251;51.326;12.370;2023-09-12T08:13:20;16.50;;;7.23;;
71435;SDS011;59251;51.326;12.370;2023-09-12T08:15:47;18.33;;;6.65;;
71435;SDS011;59251;51.326;12.370;2023-09-12T08:18:13;16.73;;;7.07;;
71435;SDS011;59251;51.326;12.370;2023-09-12T08:20:41;15.00;;;7.53;;
71435;SDS011;59251;51.326;12.370;2023-09-12T08:23:08;16.77;;;7.32;;
71435;SDS011;59251;51.326;12.370;2023-09-12T08:25:35;22.83;;;7.90;;
71435;SDS011;59251;51.326;12.370;2023-09-12T08:28:02;16.23;;;7.65;;
71435;SDS011;59251;51.326;12.370;2023-09-12T08:30:29;15.65;;;7.80;;
71435;SDS011;59251;51.326;12.370;2023-09-12T08:32:55;23.05;;;7.63;;
71435;SDS011;59251;51.326;12.370;2023-09-12T08:35:22;16.67;;;7.85;;
71435;SDS011;59251;51.326;12.370;2023-09-12T08:37:50;18.30;;;7.80;;
71435;SDS011;59251;51.326;12.370;2023-09-12T08:40:17;19.70;;;7.95;;
71435;SDS011;59251;51.326;12.370;2023-09-12T08:42:44;20.92;;;8.20;;
71435;SDS011;59251;51.326;12.370;2023-09-12T08:45:12;21.17;;;8.32;;
71435;SDS011;59251;51.326;12.370;2023-09-12T08:47:41;18.38;;;8.75;;
71435;SDS011;59251;51.326;12.370;2023-09-12T08:50:10;20.83;;;8.37;;
71435;SDS011;59251;51.326;12.370;2023-09-12T08:52:39;16.90;;;8.32;;
71435;SDS011;59251;51.326;12.370;2023-09-12T08:55:08;17.23;;;7.88;;
71435;SDS011;59251;51.326;12.370;2023-09-12T08:57:36;17.73;;;8.75;;
71435;SDS011;59251;51.326;12.370;2023-09-12T09:00:05;21.58;;;8.90;;
71435;SDS011;59251;51.326;12.370;2023-09-12T09:02:34;25.87;;;9.63;;
71435;SDS011;59251;51.326;12.370;2023-09-12T09:05:01;18.38;;;8.90;;
71435;SDS011;59251;51.326;12.370;2023-09-12T09:07:30;20.52;;;9.93;;
71435;SDS011;59251;51.326;12.370;2023-09-12T09:09:58;20.58;;;10.00;;
71435;SDS011;59251;51.326;12.370;2023-09-12T09:12:29;22.95;;;10.73;;
71435;SDS011;59251;51.326;12.370;2023-09-12T09:14:56;21.80;;;10.97;;
71435;SDS011;59251;51.326;12.370;2023-09-12T09:17:23;17.88;;;9.02;;
71435;SDS011;59251;51.326;12.370;2023-09-12T09:19:50;24.83;;;11.25;;
71435;SDS011;59251;51.326;12.370;2023-09-12T09:22:16;27.90;;;12.20;;
71435;SDS011;59251;51.326;12.370;2023-09-12T09:24:43;20.50;;;10.35;;
71435;SDS011;59251;51.326;12.370;2023-09-12T09:27:10;22.40;;;11.27;;
71435;SDS011;59251;51.326;12.370;2023-09-12T09:29:47;20.45;;;10.90;;
71435;SDS011;59251;51.326;12.370;2023-09-12T09:32:17;17.98;;;10.23;;
71435;SDS011;59251;51.326;12.370;2023-09-12T09:34:46;18.98;;;11.07;;
71435;SDS011;59251;51.326;12.370;2023-09-12T09:37:13;27.02;;;11.88;;
71435;SDS011;59251;51.326;12.370;2023-09-12T09:39:40;21.50;;;11.17;;
71435;SDS011;59251;51.326;12.370;2023-09-12T09:42:09;18.02;;;10.73;;
71435;SDS011;59251;51.326;12.370;2023-09-12T09:44:37;23.20;;;11.48;;
71435;SDS011;59251;51.326;12.370;2023-09-12T09:47:05;23.42;;;12.30;;
71435;SDS011;59251;51.326;12.370;2023-09-12T09:49:32;21.15;;;11.95;;
71435;SDS011;59251;51.326;12.370;2023-09-12T09:51:59;20.43;;;11.70;;
71435;SDS011;59251;51.326;12.370;2023-09-12T09:54:29;20.88;;;12.10;;
71435;SDS011;59251;51.326;12.370;2023-09-12T09:56:56;23.30;;;11.68;;
71435;SDS011;59251;51.326;12.370;2023-09-12T09:59:24;21.70;;;12.75;;
71435;SDS011;59251;51.326;12.370;2023-09-12T10:01:54;23.58;;;12.90;;
71435;SDS011;59251;51.326;12.370;2023-09-12T10:04:23;19.43;;;11.60;;
71435;SDS011;59251;51.326;12.370;2023-09-12T10:06:52;24.25;;;13.35;;
71435;SDS011;59251;51.326;12.370;2023-09-12T10:09:22;24.10;;;12.98;;
71435;SDS011;59251;51.326;12.370;2023-09-12T10:11:51;23.02;;;11.48;;
71435;SDS011;59251;51.326;12.370;2023-09-12T10:14:19;22.30;;;12.32;;
71435;SDS011;59251;51.326;12.370;2023-09-12T10:16:47;21.97;;;11.37;;
71435;SDS011;59251;51.326;12.370;2023-09-12T10:19:15;17.83;;;11.32;;
71435;SDS011;59251;51.326;12.370;2023-09-12T10:21:46;22.00;;;11.63;;
71435;SDS011;59251;51.326;12.370;2023-09-12T10:24:15;20.98;;;12.00;;
71435;SDS011;59251;51.326;12.370;2023-09-12T10:26:42;24.20;;;12.10;;
71435;SDS011;59251;51.326;12.370;2023-09-12T10:29:11;21.17;;;11.77;;
71435;SDS011;59251;51.326;12.370;2023-09-12T10:31:40;18.10;;;11.48;;
71435;SDS011;59251;51.326;12.370;2023-09-12T10:34:07;23.88;;;12.10;;
71435;SDS011;59251;51.326;12.370;2023-09-12T10:36:35;18.75;;;10.65;;
71435;SDS011;59251;51.326;12.370;2023-09-12T10:39:06;27.90;;;12.02;;
71435;SDS011;59251;51.326;12.370;2023-09-12T10:41:35;23.80;;;11.70;;
71435;SDS011;59251;51.326;12.370;2023-09-12T10:44:04;23.25;;;10.60;;
71435;SDS011;59251;51.326;12.370;2023-09-12T10:46:36;22.48;;;10.30;;
71435;SDS011;59251;51.326;12.370;2023-09-12T10:49:06;18.35;;;9.80;;
71435;SDS011;59251;51.326;12.370;2023-09-12T10:51:34;21.45;;;9.80;;
71435;SDS011;59251;51.326;12.370;2023-09-12T10:54:06;22.83;;;9.90;;
71435;SDS011;59251;51.326;12.370;2023-09-12T10:56:33;19.70;;;9.57;;
71435;SDS011;59251;51.326;12.370;2023-09-12T10:59:10;21.70;;;9.75;;
71435;SDS011;59251;51.326;12.370;2023-09-12T11:01:40;22.05;;;9.10;;
71435;SDS011;59251;51.326;12.370;2023-09-12T11:07:00;20.77;;;9.67;;
71435;SDS011;59251;51.326;12.370;2023-09-12T11:09:28;20.17;;;9.80;;
71435;SDS011;59251;51.326;12.370;2023-09-12T11:11:56;24.00;;;9.45;;
71435;SDS011;59251;51.326;12.370;2023-09-12T11:14:25;19.98;;;9.50;;
71435;SDS011;59251;51.326;12.370;2023-09-12T11:19:47;18.13;;;9.73;;
71435;SDS011;59251;51.326;12.370;2023-09-12T11:22:21;21.95;;;9.30;;
71435;SDS011;59251;51.326;12.370;2023-09-12T11:24:53;22.52;;;10.63;;
71435;SDS011;59251;51.326;12.370;2023-09-12T11:27:21;20.98;;;9.27;;
71435;SDS011;59251;51.326;12.370;2023-09-12T11:29:48;22.98;;;9.73;;
71435;SDS011;59251;51.326;12.370;2023-09-12T11:32:25;24.87;;;9.10;;
71435;SDS011;59251;51.326;12.370;2023-09-12T11:34:56;22.60;;;9.85;;
71435;SDS011;59251;51.326;12.370;2023-09-12T11:37:23;20.77;;;9.07;;
71435;SDS011;59251;51.326;12.370;2023-09-12T11:39:50;19.38;;;9.48;;
71435;SDS011;59251;51.326;12.370;2023-09-12T11:42:19;18.25;;;9.30;;
71435;SDS011;59251;51.326;12.370;2023-09-12T11:44:48;21.83;;;9.90;;
71435;SDS011;59251;51.326;12.370;2023-09-12T11:47:15;19.88;;;9.02;;
71435;SDS011;59251;51.326;12.370;2023-09-12T11:49:42;22.42;;;9.23;;
71435;SDS011;59251;51.326;12.370;2023-09-12T11:52:09;18.83;;;8.55;;
71435;SDS011;59251;51.326;12.370;2023-09-12T11:54:38;20.05;;;8.73;;
71435;SDS011;59251;51.326;12.370;2023-09-12T11:57:06;17.20;;;8.37;;
71435;SDS011;59251;51.326;12.370;2023-09-12T11:59:36;19.40;;;8.85;;
71435;SDS011;59251;51.326;12.370;2023-09-12T12:02:05;18.52;;;9.18;;
71435;SDS011;59251;51.326;12.370;2023-09-12T12:04:33;20.70;;;9.77;;
71435;SDS011;59251;51.326;12.370;2023-09-12T12:07:01;24.75;;;9.55;;
71435;SDS011;59251;51.326;12.370;2023-09-12T12:09:29;14.33;;;7.97;;
71435;SDS011;59251;51.326;12.370;2023-09-12T12:11:56;19.83;;;8.90;;
71435;SDS011;59251;51.326;12.370;2023-09-12T12:14:27;16.73;;;8.30;;
71435;SDS011;59251;51.326;12.370;2023-09-12T12:16:54;19.63;;;8.50;;
71435;SDS011;59251;51.326;12.370;2023-09-12T12:19:21;18.17;;;9.30;;
71435;SDS011;59251;51.326;12.370;2023-09-12T12:21:48;18.20;;;8.70;;
71435;SDS011;59251;51.326;12.370;2023-09-12T12:24:15;18.52;;;8.82;;
71435;SDS011;59251;51.326;12.370;2023-09-12T12:26:42;18.45;;;8.20;;
71435;SDS011;59251;51.326;12.370;2023-09-12T12:29:09;16.92;;;8.68;;
71435;SDS011;59251;51.326;12.370;2023-09-12T12:31:37;19.25;;;8.77;;
71435;SDS011;59251;51.326;12.370;2023-09-12T12:34:04;17.93;;;8.50;;
71435;SDS011;59251;51.326;12.370;2023-09-12T12:36:32;18.05;;;7.90;;
71435;SDS011;59251;51.326;12.370;2023-09-12T12:38:59;17.35;;;8.43;;
71435;SDS011;59251;51.326;12.370;2023-09-12T12:41:26;15.00;;;7.25;;
71435;SDS011;59251;51.326;12.370;2023-09-12T12:43:56;17.30;;;7.50;;
71435;SDS011;59251;51.326;12.370;2023-09-12T12:46:24;17.10;;;7.57;;
71435;SDS011;59251;51.326;12.370;2023-09-12T12:48:52;17.70;;;8.02;;
71435;SDS011;59251;51.326;12.370;2023-09-12T12:51:21;18.65;;;8.18;;
71435;SDS011;59251;51.326;12.370;2023-09-12T12:53:50;16.88;;;7.10;;
71435;SDS011;59251;51.326;12.370;2023-09-12T12:56:18;17.35;;;8.00;;
71435;SDS011;59251;51.326;12.370;2023-09-12T12:58:47;19.73;;;9.83;;
71435;SDS011;59251;51.326;12.370;2023-09-12T13:01:14;19.35;;;10.57;;
71435;SDS011;59251;51.326;12.370;2023-09-12T13:03:42;16.63;;;7.60;;
71435;SDS011;59251;51.326;12.370;2023-09-12T13:06:10;18.02;;;7.43;;
71435;SDS011;59251;51.326;12.370;2023-09-12T13:08:42;17.02;;;8.00;;
71435;SDS011;59251;51.326;12.370;2023-09-12T13:11:11;19.50;;;8.10;;
71435;SDS011;59251;51.326;12.370;2023-09-12T13:13:38;19.48;;;7.32;;
71435;SDS011;59251;51.326;12.370;2023-09-12T13:16:05;16.70;;;7.47;;
71435;SDS011;59251;51.326;12.370;2023-09-12T13:18:34;21.23;;;8.30;;
71435;SDS011;59251;51.326;12.370;2023-09-12T13:21:01;18.70;;;6.97;;
71435;SDS011;59251;51.326;12.370;2023-09-12T13:23:30;14.50;;;6.97;;
71435;SDS011;59251;51.326;12.370;2023-09-12T13:25:57;14.57;;;7.18;;
71435;SDS011;59251;51.326;12.370;2023-09-12T13:28:23;15.75;;;6.93;;
71435;SDS011;59251;51.326;12.370;2023-09-12T13:30:51;18.77;;;7.28;;
71435;SDS011;59251;51.326;12.370;2023-09-12T13:33:18;17.58;;;7.68;;
71435;SDS011;59251;51.326;12.370;2023-09-12T13:35:44;17.80;;;7.10;;
71435;SDS011;59251;51.326;12.370;2023-09-12T13:38:12;16.75;;;7.13;;
71435;SDS011;59251;51.326;12.370;2023-09-12T13:40:40;17.33;;;7.20;;
71435;SDS011;59251;51.326;12.370;2023-09-12T13:43:08;20.90;;;7.53;;
71435;SDS011;59251;51.326;12.370;2023-09-12T13:45:35;13.60;;;7.18;;
71435;SDS011;59251;51.326;12.370;2023-09-12T13:48:02;19.97;;;7.17;;
71435;SDS011;59251;51.326;12.370;2023-09-12T13:50:30;18.35;;;7.03;;
71435;SDS011;59251;51.326;12.370;2023-09-12T13:52:57;16.80;;;6.80;;
71435;SDS011;59251;51.326;12.370;2023-09-12T13:55:24;19.73;;;6.78;;
71435;SDS011;59251;51.326;12.370;2023-09-12T13:57:52;17.77;;;7.18;;
71435;SDS011;59251;51.326;12.370;2023-09-12T14:00:19;20.73;;;7.47;;
71435;SDS011;59251;51.326;12.370;2023-09-12T14:02:46;14.05;;;6.85;;
71435;SDS011;59251;51.326;12.370;2023-09-12T14:05:12;14.07;;;6.68;;
71435;SDS011;59251;51.326;12.370;2023-09-12T14:07:39;13.65;;;7.03;;
71435;SDS011;59251;51.326;12.370;2023-09-12T14:10:06;14.68;;;6.57;;
71435;SDS011;59251;51.326;12.370;2023-09-12T14:12:34;15.73;;;6.80;;
71435;SDS011;59251;51.326;12.370;2023-09-12T14:15:02;16.88;;;7.53;;
71435;SDS011;59251;51.326;12.370;2023-09-12T14:17:29;18.33;;;7.35;;
71435;SDS011;59251;51.326;12.370;2023-09-12T14:19:55;16.15;;;6.60;;
71435;SDS011;59251;51.326;12.370;2023-09-12T14:22:22;14.93;;;6.57;;
71435;SDS011;59251;51.326;12.370;2023-09-12T14:24:49;14.77;;;6.67;;
71435;SDS011;59251;51.326;12.370;2023-09-12T14:27:15;17.85;;;6.88;;
71435;SDS011;59251;51.326;12.370;2023-09-12T14:29:42;16.48;;;6.60;;